Time;durP1;ratioP1;P1;durP2;ratioP2;P2;SDS_P1;SDS_P2;PMS_P1;PMS_P2;Temp;Humidity;BMP_temperature;BMP_pressure;BME280_temperature;BME280_humidity;BME280_pressure;Samples;Min_cycle;Max_cycle;Signal;HPM_P1;HPM_P2
2022/05/02 00:00:07;;;;;;;21.95;16.67;;;;;;;7.50;91.47;67607.72;6061056;23;20019;-83
2022/05/02 00:02:32;;;;;;;21.75;16.13;;;;;;;;;;6060952;23;20018;-86
2022/05/02 00:04:58;;;;;;;23.23;16.33;;;;;;;7.49;91.52;67606.03;6059617;23;20019;-82
2022/05/02 00:07:23;;;;;;;22.88;16.42;;;;;;;7.46;91.63;67605.84;6062061;23;20019;-82
2022/05/02 00:09:48;;;;;;;22.35;16.77;;;;;;;;;;6058108;23;20015;-82
2022/05/02 00:12:14;;;;;;;23.05;16.52;;;;;;;7.43;91.85;67600.34;6059712;23;20019;-83
2022/05/02 00:14:39;;;;;;;19.90;15.63;;;;;;;;;;6081177;23;20019;-84
2022/05/02 00:17:04;;;;;;;21.92;15.90;;;;;;;;;;6081384;23;20023;-84
2022/05/02 00:19:29;;;;;;;19.23;15.10;;;;;;;7.41;91.68;67598.09;6081779;23;20050;-83
2022/05/02 00:21:55;;;;;;;20.67;16.73;;;;;;;7.36;91.89;67597.72;6076167;23;20251;-86
2022/05/02 00:24:20;;;;;;;22.50;17.25;;;;;;;;;;6077131;23;20473;-83
2022/05/02 00:26:45;;;;;;;22.88;16.33;;;;;;;;;;6076598;23;20019;-83
2022/05/02 00:29:10;;;;;;;20.83;16.20;;;;;;;7.17;92.96;67573.59;6078352;23;20030;-85
2022/05/02 00:31:36;;;;;;;22.95;17.08;;;;;;;7.16;93.35;67569.78;6073893;23;20330;-86
2022/05/02 00:34:01;;;;;;;22.15;17.25;;;;;;;7.10;93.41;67563.00;6073289;23;20030;-85
2022/05/02 00:36:26;;;;;;;22.40;16.38;;;;;;;;;;6072991;23;20023;-87
2022/05/02 00:38:51;;;;;;;20.35;16.38;;;;;;;;;;6067531;23;20018;-85
2022/05/02 00:41:19;;;;;;;20.88;15.98;;;;;;;7.05;93.50;67562.63;6062697;23;20029;-86
2022/05/02 00:43:44;;;;;;;20.23;16.45;;;;;;;6.95;93.80;67547.16;6064784;23;20019;-85
2022/05/02 00:46:20;;;;;;;23.60;17.33;;;;;;;6.94;94.45;67551.34;6063112;23;20019;-87
2022/05/02 00:48:46;;;;;;;22.05;16.55;;;;;;;6.93;94.40;67544.91;6063891;23;20018;-84
2022/05/02 00:51:12;;;;;;;21.55;16.67;;;;;;;6.98;93.82;67550.00;6062337;23;20078;-85
2022/05/02 00:53:39;;;;;;;21.05;16.35;;;;;;;6.99;94.10;67551.13;6061849;23;20022;-85
2022/05/02 00:56:06;;;;;;;21.45;16.58;;;;;;;6.93;94.38;67544.91;6062267;23;20019;-84
2022/05/02 00:58:34;;;;;;;22.35;16.63;;;;;;;6.95;94.42;67547.16;6061602;23;20026;-84
2022/05/02 01:01:00;;;;;;;23.98;17.20;;;;;;;7.03;94.11;67557.75;6064184;23;20412;-85
2022/05/02 01:03:25;;;;;;;22.35;16.45;;;;;;;7.07;93.28;67562.81;6063897;23;20026;-86
2022/05/02 01:08:35;;;;;;;20.63;15.98;;;;;;;;;;6064343;23;20069;-83
2022/05/02 01:11:01;;;;;;;22.45;17.52;;;;;;;6.93;94.60;67550.22;6062924;23;20117;-87
2022/05/02 01:13:35;;;;;;;21.15;16.25;;;;;;;;;;6063022;23;20021;-84
2022/05/02 01:16:06;;;;;;;21.73;17.00;;;;;;;;;;6062662;23;20034;-84
2022/05/02 01:18:31;;;;;;;22.52;17.00;;;;;;;;;;6062887;23;20034;-83
2022/05/02 01:20:56;;;;;;;19.13;16.48;;;;;;;7.16;94.08;67570.38;6063152;23;20358;-82
2022/05/02 01:23:22;;;;;;;23.73;17.52;;;;;;;7.19;94.55;67575.84;6062841;23;20038;-83
2022/05/02 01:25:47;;;;;;;23.48;17.00;;;;;;;7.16;94.20;67570.38;6062592;23;20344;-84
2022/05/02 01:28:13;;;;;;;23.55;16.77;;;;;;;7.20;93.58;67574.88;6063638;23;20033;-83
2022/05/02 01:30:38;;;;;;;23.02;16.80;;;;;;;7.27;93.89;67582.25;6062464;23;20042;-84
2022/05/02 01:33:03;;;;;;;21.75;17.38;;;;;;;7.33;94.58;67589.03;6060728;23;20057;-84
2022/05/02 01:35:29;;;;;;;26.90;17.63;;;;;;;7.32;94.20;67590.56;6065795;23;20022;-84
2022/05/02 01:37:54;;;;;;;23.05;16.58;;;;;;;7.35;94.06;67591.31;6065025;23;20023;-83
2022/05/02 01:40:20;;;;;;;22.88;17.63;;;;;;;7.32;93.98;67587.91;6064354;23;20015;-84
2022/05/02 01:42:45;;;;;;;25.92;18.30;;;;;;;;;;6065061;23;20453;-84
2022/05/02 01:45:10;;;;;;;21.95;17.17;;;;;;;7.35;93.66;67593.94;6065081;23;20019;-83
2022/05/02 01:47:36;;;;;;;23.40;17.77;;;;;;;7.37;93.63;67593.56;6066108;23;20045;-83
2022/05/02 01:50:01;;;;;;;22.90;18.65;;;;;;;;;;6064741;23;20050;-83
2022/05/02 01:52:26;;;;;;;22.65;17.48;;;;;;;7.39;93.59;67598.47;6065190;23;20086;-84
2022/05/02 01:54:51;;;;;;;20.65;16.33;;;;;;;7.43;92.99;67603.00;6066212;23;20081;-84
2022/05/02 01:57:17;;;;;;;22.42;16.75;;;;;;;7.49;92.93;67606.59;6063516;23;20074;-84
2022/05/02 01:59:42;;;;;;;23.50;17.17;;;;;;;7.54;92.69;67612.25;6062303;23;20405;-84
2022/05/02 02:02:08;;;;;;;22.50;17.50;;;;;;;7.60;91.60;67618.47;6062063;23;20397;-85
2022/05/02 02:07:17;;;;;;;22.75;17.02;;;;;;;7.70;90.87;67629.78;6073139;23;20046;-82
2022/05/02 02:09:42;;;;;;;22.58;17.27;;;;;;;;;;6066818;23;20015;-85
2022/05/02 02:12:08;;;;;;;25.02;17.45;;;;;;;7.75;90.32;67634.88;6060793;23;20519;-83
2022/05/02 02:14:34;;;;;;;23.08;18.15;;;;;;;7.71;91.09;67633.56;6061390;23;20533;-83
2022/05/02 02:16:59;;;;;;;23.60;16.25;;;;;;;7.67;91.10;67626.38;6061487;23;20027;-84
2022/05/02 02:19:24;;;;;;;22.27;17.77;;;;;;;7.68;90.81;67632.81;6062242;23;20019;-85
2022/05/02 02:21:50;;;;;;;23.00;16.67;;;;;;;7.69;90.20;67623.91;6063306;23;20074;-83
2022/05/02 02:24:15;;;;;;;21.70;16.70;;;;;;;;;;6062308;23;20070;-83
2022/05/02 02:26:40;;;;;;;24.73;18.95;;;;;;;7.63;91.46;67621.88;6061258;23;20023;-83
2022/05/02 02:29:06;;;;;;;23.40;18.00;;;;;;;;;;6062681;23;20018;-84
2022/05/02 02:31:31;;;;;;;23.35;17.42;;;;;;;7.65;90.84;67630.00;6061856;23;20097;-84
2022/05/02 02:33:56;;;;;;;23.55;17.33;;;;;;;7.70;90.62;67629.78;6060414;23;20082;-82
2022/05/02 02:36:22;;;;;;;21.83;17.73;;;;;;;7.68;91.03;67627.50;6061219;23;20025;-84
2022/05/02 02:38:47;;;;;;;23.13;18.08;;;;;;;7.58;91.63;67616.75;6063744;23;20023;-82
2022/05/02 02:41:12;;;;;;;23.05;18.23;;;;;;;7.58;91.46;67616.19;6062488;23;20050;-83
2022/05/02 02:43:37;;;;;;;27.85;19.00;;;;;;;7.57;91.35;67615.06;6062677;23;20098;-85
2022/05/02 02:46:03;;;;;;;23.17;18.70;;;;;;;7.57;91.44;67615.06;6062603;23;20050;-84
2022/05/02 02:48:28;;;;;;;21.92;18.13;;;;;;;7.54;91.44;67614.31;6061118;23;20023;-84
2022/05/02 02:50:53;;;;;;;26.10;18.40;;;;;;;7.47;91.86;67604.88;6062783;23;20018;-85
2022/05/02 02:53:19;;;;;;;23.90;18.27;;;;;;;7.44;91.79;67601.47;6062383;23;20021;-83
2022/05/02 02:55:44;;;;;;;25.92;19.05;;;;;;;7.41;92.08;67598.09;6060799;23;20023;-84
2022/05/02 02:58:09;;;;;;;24.35;18.05;;;;;;;7.37;92.25;67598.88;6063196;23;20019;-84
2022/05/02 03:00:35;;;;;;;22.30;17.48;;;;;;;7.31;92.40;67592.06;6062846;23;20098;-83
2022/05/02 03:03:00;;;;;;;23.60;18.50;;;;;;;7.26;93.26;67581.13;6062101;23;20015;-83
2022/05/02 03:08:10;;;;;;;24.75;18.50;;;;;;;7.11;93.33;67564.72;6065674;23;20548;-82
2022/05/02 03:10:36;;;;;;;24.88;19.55;;;;;;;7.01;94.02;67553.94;6066879;23;20023;-82
2022/05/02 03:13:01;;;;;;;24.88;18.75;;;;;;;6.92;94.33;67549.06;6066580;23;20074;-81
2022/05/02 03:15:27;;;;;;;25.30;19.77;;;;;;;6.91;95.03;67542.09;6067394;23;20434;-81
2022/05/02 03:17:52;;;;;;;27.02;20.20;;;;;;;6.83;94.91;67538.88;6061719;23;20027;-83
2022/05/02 03:20:18;;;;;;;26.13;19.27;;;;;;;6.75;95.71;67529.84;6059090;23;20027;-83
2022/05/02 03:22:43;;;;;;;26.95;20.73;;;;;;;6.73;96.23;67522.84;6061450;23;20015;-82
2022/05/02 03:25:08;;;;;;;25.25;19.33;;;;;;;;;;6060772;23;20412;-83
2022/05/02 03:27:34;;;;;;;29.20;22.20;;;;;;;6.64;96.41;67512.66;6061215;23;20030;-83
2022/05/02 03:29:59;;;;;;;28.38;21.65;;;;;;;6.72;96.69;67521.16;6061842;23;20022;-84
2022/05/02 03:32:24;;;;;;;26.38;21.25;;;;;;;6.68;96.35;67517.19;6060583;23;20019;-82
2022/05/02 03:34:50;;;;;;;28.20;20.65;;;;;;;6.69;96.48;67523.03;6060503;23;20014;-82
2022/05/02 03:37:15;;;;;;;27.85;21.77;;;;;;;;;;6059546;23;20019;-82
2022/05/02 03:39:41;;;;;;;26.58;21.38;;;;;;;;;;6061043;23;20021;-81
2022/05/02 03:42:06;;;;;;;26.15;21.60;;;;;;;;;;6060127;23;20023;-83
2022/05/02 03:44:31;;;;;;;26.95;20.70;;;;;;;;;;6058628;23;20029;-84
2022/05/02 03:46:57;;;;;;;29.17;21.88;;;;;;;6.63;96.91;67511.53;6060279;23;20047;-83
2022/05/02 03:49:22;;;;;;;26.50;22.15;;;;;;;6.54;97.13;67501.34;6061718;23;20015;-84
2022/05/02 03:51:47;;;;;;;30.75;22.13;;;;;;;6.55;97.74;67508.34;6062020;23;20023;-85
2022/05/02 03:54:13;;;;;;;27.00;21.17;;;;;;;6.50;97.05;67497.41;6063320;23;20047;-83
2022/05/02 03:56:38;;;;;;;28.90;22.00;;;;;;;6.53;97.65;67500.81;6061872;23;20046;-84
2022/05/02 03:59:03;;;;;;;27.75;20.27;;;;;;;6.47;97.34;67494.00;6064196;23;20102;-82
2022/05/02 04:01:29;;;;;;;27.05;21.13;;;;;;;6.48;97.90;67494.56;6063847;23;20487;-83
2022/05/02 04:03:54;;;;;;;27.38;20.70;;;;;;;6.48;97.56;67497.78;6062628;23;20479;-82
2022/05/02 04:06:20;;;;;;;29.25;22.15;;;;;;;6.47;97.62;67496.66;6061316;23;20638;-83
2022/05/02 04:08:46;;;;;;;28.30;19.52;;;;;;;6.38;97.70;67483.81;6060343;23;20023;-82
2022/05/02 04:11:12;;;;;;;25.38;20.73;;;;;;;6.31;97.79;67479.13;6063200;23;20461;-83
2022/05/02 04:13:37;;;;;;;30.23;21.25;;;;;;;6.36;98.81;67481.56;6062853;23;20022;-82
2022/05/02 04:16:03;;;;;;;27.83;21.20;;;;;;;;;;6062000;23;20093;-83
2022/05/02 04:18:28;;;;;;;26.67;20.80;;;;;;;6.39;98.06;67484.97;6060412;23;20097;-83
2022/05/02 04:20:53;;;;;;;28.55;21.33;;;;;;;;;;6061274;23;20089;-83
2022/05/02 04:23:18;;;;;;;30.30;22.23;;;;;;;6.27;98.45;67471.97;6058313;23;20026;-83
2022/05/02 04:25:44;;;;;;;30.25;21.90;;;;;;;6.20;99.02;67466.69;6062345;23;20298;-82
2022/05/02 04:28:10;;;;;;;30.45;21.65;;;;;;;6.21;99.45;67467.25;6063057;23;20018;-82
2022/05/02 04:30:37;;;;;;;31.20;22.30;;;;;;;6.27;99.77;67471.38;6064250;23;20019;-81
2022/05/02 04:33:02;;;;;;;28.50;20.85;;;;;;;6.27;99.90;67471.38;6059752;23;20015;-82
2022/05/02 04:35:28;;;;;;;27.50;21.35;;;;;;;6.33;99.55;67478.19;6062445;23;20078;-81
2022/05/02 04:37:53;;;;;;;31.85;22.10;;;;;;;6.38;99.76;67483.25;6062462;23;20461;-80
2022/05/02 04:40:18;;;;;;;27.15;20.83;;;;;;;6.43;98.90;67492.13;6062263;23;20018;-82
2022/05/02 04:42:44;;;;;;;27.60;20.73;;;;;;;6.40;98.24;67485.53;6060926;23;20030;-81
2022/05/02 04:45:10;;;;;;;28.60;21.83;;;;;;;6.44;99.14;67495.31;6064411;23;20082;-81
2022/05/02 04:47:35;;;;;;;29.77;22.77;;;;;;;6.46;98.43;67494.94;6057475;23;20098;-80
2022/05/02 04:50:00;;;;;;;26.88;21.40;;;;;;;6.44;98.81;67493.25;6062250;23;20026;-82
2022/05/02 04:52:26;;;;;;;26.95;20.20;;;;;;;6.49;98.93;67495.69;6059012;23;20050;-81
2022/05/02 04:54:51;;;;;;;29.83;20.52;;;;;;;6.49;98.07;67496.25;6059590;23;20018;-81
2022/05/02 04:57:16;;;;;;;28.67;21.33;;;;;;;6.52;98.42;67499.66;6062318;23;20026;-81
2022/05/02 04:59:41;;;;;;;29.13;21.75;;;;;;;6.58;98.26;67507.97;6058669;23;20025;-81
2022/05/02 05:02:07;;;;;;;31.13;21.48;;;;;;;6.63;98.35;67510.97;6055643;23;20023;-82
2022/05/02 05:04:32;;;;;;;29.30;21.23;;;;;;;6.69;97.78;67520.97;6058091;23;20037;-81
2022/05/02 05:06:58;;;;;;;26.05;20.60;;;;;;;6.75;97.35;67529.84;6055654;23;20035;-81
2022/05/02 05:09:23;;;;;;;25.33;18.80;;;;;;;6.78;96.88;67527.94;6056772;23;20014;-81
2022/05/02 05:12:07;;;;;;;26.02;19.80;;;;;;;6.75;97.10;67527.75;6058643;23;20026;-81
2022/05/02 05:18:05;;;;;;;26.83;19.77;;;;;;;6.92;97.22;67543.22;5999425;23;20027;-81
2022/05/02 05:20:57;;;;;;;25.70;19.23;;;;;;;7.00;96.91;67552.25;6063106;23;20045;-82
2022/05/02 05:23:34;;;;;;;24.30;18.10;;;;;;;7.10;96.00;67563.00;6060550;23;20059;-82
2022/05/02 05:26:04;;;;;;;23.33;17.58;;;;;;;7.22;95.59;67579.22;6061967;23;20791;-81
2022/05/02 05:28:35;;;;;;;23.65;18.42;;;;;;;;;;6062632;23;20026;-81
2022/05/02 05:31:25;;;;;;;23.55;18.38;;;;;;;7.38;94.84;67594.69;6065046;23;20074;-82
2022/05/02 05:34:10;;;;;;;24.80;17.38;;;;;;;7.47;94.70;67604.31;6064534;23;20043;-82
2022/05/02 05:36:42;;;;;;;22.05;16.20;;;;;;;7.56;93.64;67616.59;6061042;23;20019;-80
2022/05/02 05:39:15;;;;;;;25.52;17.10;;;;;;;7.64;93.63;67623.00;6076255;23;20018;-80
2022/05/02 05:41:49;;;;;;;23.90;16.92;;;;;;;7.72;93.18;67634.69;6056702;23;20019;-81
2022/05/02 05:44:36;;;;;;;18.33;16.25;;;;;;;7.85;92.37;67646.78;6057036;23;20077;-80
2022/05/02 05:47:14;;;;;;;21.15;15.77;;;;;;;7.94;91.26;67661.13;6055727;23;20015;-81
2022/05/02 05:49:50;;;;;;;22.98;16.65;;;;;;;8.05;91.31;67673.56;6054422;23;20015;-81
2022/05/02 05:52:40;;;;;;;22.73;16.55;;;;;;;8.11;91.67;67675.06;6055510;23;20015;-81
2022/05/02 05:55:30;;;;;;;21.05;16.52;;;;;;;8.21;91.41;67691.72;6056169;23;20030;-80
2022/05/02 05:58:28;;;;;;;22.20;16.38;;;;;;;8.31;90.57;67697.72;6057047;23;20458;-80
2022/05/02 06:00:58;;;;;;;20.53;15.80;;;;;;;;;;6057693;23;20031;-81
2022/05/02 06:03:25;;;;;;;20.48;15.15;;;;;;;8.56;89.25;67724.94;6057122;23;20026;-81
2022/05/02 06:05:50;;;;;;;16.60;14.73;;;;;;;;;;6057413;23;20007;-81
2022/05/02 06:08:18;;;;;;;22.33;15.52;;;;;;;;;;6058078;23;20025;-81
2022/05/02 06:10:44;;;;;;;17.25;13.75;;;;;;;8.86;86.27;67757.78;6060014;23;20414;-81
2022/05/02 06:13:09;;;;;;;20.52;14.73;;;;;;;8.95;86.70;67773.31;6056826;23;20019;-81
2022/05/02 06:18:30;;;;;;;17.30;13.98;;;;;;;9.11;84.76;67786.13;6058909;23;20081;-81
2022/05/02 06:21:02;;;;;;;16.33;13.10;;;;;;;9.29;84.64;67805.41;6062151;23;20018;-81
2022/05/02 06:23:31;;;;;;;15.90;13.02;;;;;;;9.34;84.24;67811.06;6059776;23;20390;-81
2022/05/02 06:25:57;;;;;;;15.90;13.55;;;;;;;9.40;83.37;67820.53;6060672;23;20015;-81
2022/05/02 06:28:25;;;;;;;16.42;13.43;;;;;;;;;;6060657;23;20058;-81
2022/05/02 06:30:55;;;;;;;14.32;12.82;;;;;;;9.58;82.22;67838.28;6060217;23;20050;-81
2022/05/02 06:33:21;;;;;;;;;;;;;;;9.65;81.20;67846.22;6061449;23;20071;-81
2022/05/02 06:36:12;;;;;;;16.42;12.90;;;;;;;9.67;81.33;67848.47;6059946;23;19920;-81
2022/05/02 06:39:03;;;;;;;14.95;12.13;;;;;;;9.84;81.04;67866.63;6061037;23;20078;-81
2022/05/02 06:41:59;;;;;;;13.60;11.40;;;;;;;9.93;80.10;67880.06;6056011;23;20114;-81
2022/05/02 06:45:15;;;;;;;14.13;12.07;;;;;;;10.07;79.52;67886.81;6061368;23;20083;-82
2022/05/02 06:47:40;;;;;;;13.52;10.30;;;;;;;10.11;78.49;67891.94;6024409;23;20023;-82
2022/05/02 06:50:07;;;;;;;14.18;11.05;;;;;;;10.22;78.61;67911.81;6063283;23;20026;-81
2022/05/02 06:52:33;;;;;;;14.60;11.27;;;;;;;;;;6086488;23;20038;-82
2022/05/02 06:55:24;;;;;;;11.98;10.38;;;;;;;10.55;77.17;67950.81;6063128;23;20058;-82
2022/05/02 06:57:57;;;;;;;13.25;10.27;;;;;;;10.68;76.08;67954.38;6062563;23;20023;-81
2022/05/02 07:00:23;;;;;;;11.32;10.13;;;;;;;10.74;75.10;67972.38;6063402;23;20481;-82
2022/05/02 07:02:52;;;;;;;11.40;10.20;;;;;;;10.80;75.76;67973.31;6065187;23;20043;-82
2022/05/02 07:05:34;;;;;;;14.50;9.80;;;;;;;10.87;74.24;67981.25;6063457;23;20023;-82
2022/05/02 07:08:03;;;;;;;14.20;10.57;;;;;;;;;;6065247;23;20034;-82
2022/05/02 07:10:34;;;;;;;12.07;9.18;;;;;;;10.98;74.52;67993.72;6065251;23;20093;-82
2022/05/02 07:13:30;;;;;;;11.50;10.30;;;;;;;11.05;73.95;67996.34;6062732;23;20022;-82
2022/05/02 07:16:15;;;;;;;15.05;10.18;;;;;;;;;;6065617;23;20068;-82
2022/05/02 07:18:49;;;;;;;11.50;8.55;;;;;;;;;;6039834;23;20361;-82
2022/05/02 07:21:30;;;;;;;12.98;9.68;;;;;;;11.45;73.06;68045.97;6063383;23;20794;-82
2022/05/02 07:24:15;;;;;;;12.40;10.38;;;;;;;11.57;72.83;68053.69;6063846;23;20054;-82
2022/05/02 07:26:41;;;;;;;11.13;9.02;;;;;;;;;;6064453;23;20527;-82
2022/05/02 07:29:08;;;;;;;11.77;9.25;;;;;;;11.66;71.85;68071.34;6065790;23;20018;-82
2022/05/02 07:31:35;;;;;;;12.07;9.02;;;;;;;11.79;72.03;68077.53;6064068;23;20023;-82
2022/05/02 07:34:01;;;;;;;11.85;9.38;;;;;;;;;;6064323;23;20015;-82
2022/05/02 07:36:28;;;;;;;11.10;8.38;;;;;;;11.96;70.08;68097.44;6064102;23;20107;-82
2022/05/02 07:39:02;;;;;;;12.85;9.07;;;;;;;11.99;69.78;68105.03;6062635;23;20041;-82
2022/05/02 07:41:27;;;;;;;14.77;8.90;;;;;;;12.05;68.79;68111.88;6064293;23;20019;-82
2022/05/02 07:44:03;;;;;;;10.63;8.43;;;;;;;12.04;68.46;68111.28;6064646;23;20078;-82
2022/05/02 07:46:35;;;;;;;11.27;8.88;;;;;;;12.10;67.81;68117.53;6064431;23;20023;-82
2022/05/02 07:49:02;;;;;;;14.32;9.35;;;;;;;;;;6062765;23;20022;-82
2022/05/02 07:51:27;;;;;;;12.57;9.27;;;;;;;12.18;68.36;68121.31;6062578;23;20345;-82
2022/05/02 07:53:53;;;;;;;9.20;7.72;;;;;;;12.31;67.37;68141.41;6063603;23;20111;-82
2022/05/02 07:56:23;;;;;;;12.55;9.00;;;;;;;12.36;67.46;68141.75;6061988;23;20547;-82
2022/05/02 07:58:51;;;;;;;10.43;8.65;;;;;;;;;;6063718;23;20022;-82
2022/05/02 08:01:18;;;;;;;11.43;8.07;;;;;;;12.57;67.15;68164.47;6064355;23;20019;-83
2022/05/02 08:03:43;;;;;;;12.55;7.30;;;;;;;12.83;65.93;68194.03;6063867;23;20051;-82
2022/05/02 08:06:18;;;;;;;11.15;7.07;;;;;;;;;;6065151;23;20014;-82
2022/05/02 08:09:00;;;;;;;10.13;7.65;;;;;;;13.01;64.89;68218.72;6065020;23;20019;-82
2022/05/02 08:11:41;;;;;;;7.93;6.70;;;;;;;;;;6065115;23;20019;-82
2022/05/02 08:14:16;;;;;;;9.75;7.07;;;;;;;13.17;61.85;68231.00;6064932;23;20026;-82
2022/05/02 08:16:52;;;;;;;9.57;6.47;;;;;;;;;;6038976;23;20037;-82
2022/05/02 08:19:49;;;;;;;9.55;6.03;;;;;;;13.35;60.60;68251.50;6066742;23;20021;-82
2022/05/02 08:28:14;;;;;;;9.27;5.63;;;;;;;13.65;58.06;68289.81;6079329;23;20113;-82
2022/05/02 08:30:55;;;;;;;7.57;5.45;;;;;;;13.63;57.02;68282.75;6081409;23;20026;-82
2022/05/02 08:33:26;;;;;;;8.55;5.93;;;;;;;13.70;56.68;68295.50;6078853;23;20029;-82
2022/05/02 08:36:03;;;;;;;8.25;5.65;;;;;;;13.66;56.94;68291.50;6078747;23;20077;-82
2022/05/02 08:38:54;;;;;;;8.85;5.47;;;;;;;;;;6082477;23;20019;-81
2022/05/02 08:41:25;;;;;;;6.85;5.38;;;;;;;;;;6079917;23;20102;-82
2022/05/02 08:44:24;;;;;;;9.27;5.38;;;;;;;14.35;55.27;68362.41;6082035;23;20430;-82
2022/05/02 08:47:08;;;;;;;6.93;5.22;;;;;;;;;;6085668;23;20026;-82
2022/05/02 08:49:40;;;;;;;10.20;5.53;;;;;;;14.47;56.54;68376.06;6086296;23;20537;-82
2022/05/02 08:52:05;;;;;;;7.35;5.43;;;;;;;14.52;56.25;68387.13;6084527;23;20007;-82
2022/05/02 08:54:53;;;;;;;7.95;5.95;;;;;;;14.55;54.42;68381.94;6085668;23;20236;-82
2022/05/02 08:57:24;;;;;;;8.40;5.82;;;;;;;;;;6084923;23;20103;-82
2022/05/02 09:00:04;;;;;;;8.57;6.05;;;;;;;;;;6084417;23;20011;-82
2022/05/02 09:02:29;;;;;;;9.68;6.20;;;;;;;;;;6084322;23;20025;-82
2022/05/02 09:05:14;;;;;;;7.93;6.07;;;;;;;;;;6080406;23;20027;-82
2022/05/02 09:07:57;;;;;;;11.88;6.32;;;;;;;;;;6072959;23;20007;-82
2022/05/02 09:10:50;;;;;;;9.15;5.97;;;;;;;14.84;53.41;68417.06;6085107;23;20019;-82
2022/05/02 09:13:36;;;;;;;10.70;6.38;;;;;;;14.83;57.11;68415.94;6077046;23;20097;-82
2022/05/02 09:16:16;;;;;;;14.02;6.88;;;;;;;15.13;54.82;68449.53;6066787;23;20022;-82
2022/05/02 09:18:56;;;;;;;9.10;7.05;;;;;;;15.18;55.48;68455.22;6066166;23;20053;-82
2022/05/02 09:21:21;;;;;;;9.63;7.45;;;;;;;;;;6066369;23;20019;-82
2022/05/02 09:24:19;;;;;;;10.97;7.10;;;;;;;15.23;54.21;68460.34;6065530;23;20071;-82
2022/05/02 09:26:47;;;;;;;10.60;6.80;;;;;;;15.47;55.52;68487.69;6044573;23;20023;-82
2022/05/02 09:29:27;;;;;;;9.47;7.00;;;;;;;;;;6066352;23;20400;-82
2022/05/02 09:32:21;;;;;;;9.75;6.97;;;;;;;15.60;53.36;68501.94;6065339;23;20247;-82
2022/05/02 09:34:58;;;;;;;10.88;6.90;;;;;;;15.73;52.63;68516.75;6066280;23;20023;-82
2022/05/02 09:37:39;;;;;;;8.63;6.60;;;;;;;;;;6066724;23;20023;-82
2022/05/02 09:40:12;;;;;;;8.93;7.20;;;;;;;15.95;52.65;68538.00;6066249;23;20406;-82
2022/05/02 09:42:50;;;;;;;9.55;7.50;;;;;;;16.09;53.95;68553.97;6064573;23;20025;-82
2022/05/02 09:51:25;;;;;;;9.20;6.90;;;;;;;15.98;52.61;68552.75;6064803;23;20086;-82
2022/05/02 09:53:54;;;;;;;9.63;6.90;;;;;;;16.04;52.98;68550.94;6040974;23;20393;-82
2022/05/02 09:56:39;;;;;;;8.82;6.95;;;;;;;15.98;50.74;68544.69;6067328;23;20050;-82
2022/05/02 09:59:16;;;;;;;11.38;7.35;;;;;;;;;;6066741;23;20472;-82
2022/05/02 10:01:56;;;;;;;11.15;6.80;;;;;;;16.24;52.66;68573.19;6065025;23;20365;-82
2022/05/02 10:04:49;;;;;;;10.75;8.45;;;;;;;16.26;49.45;68572.78;6065761;23;20375;-82
2022/05/02 10:07:18;;;;;;;10.77;7.80;;;;;;;16.17;50.83;68565.78;6066047;23;20023;-83
2022/05/02 10:09:50;;;;;;;;;;;;;;;15.94;49.88;68539.53;6066004;23;20025;-82
2022/05/02 10:12:25;;;;;;;9.45;7.47;;;;;;;;;;6065824;23;20431;-82
2022/05/02 10:15:03;;;;;;;9.82;7.68;;;;;;;16.42;50.54;68593.69;6066938;23;20019;-83
2022/05/02 10:17:53;;;;;;;10.25;7.07;;;;;;;16.52;50.58;68601.84;6065448;23;20476;-83
2022/05/02 10:20:20;;;;;;;10.10;7.28;;;;;;;16.81;50.84;68637.06;6066056;23;20149;-82
2022/05/02 10:22:55;;;;;;;10.77;8.07;;;;;;;;;;6068536;23;20090;-83
2022/05/02 10:25:30;;;;;;;8.85;7.35;;;;;;;16.67;50.58;68615.69;6066817;23;20082;-82
2022/05/02 10:28:14;;;;;;;10.43;8.27;;;;;;;;;;6066600;23;20019;-83
2022/05/02 10:30:50;;;;;;;10.98;8.05;;;;;;;16.55;50.22;68607.94;6067976;23;20030;-82
2022/05/02 10:33:24;;;;;;;9.65;7.53;;;;;;;16.70;49.77;68622.38;6066447;23;20015;-83
2022/05/02 10:35:52;;;;;;;10.07;7.88;;;;;;;17.06;50.29;68665.00;6072480;23;20015;-82
2022/05/02 10:38:27;;;;;;;11.15;7.93;;;;;;;17.24;48.36;68684.97;6078541;23;20351;-82
2022/05/02 10:41:06;;;;;;;9.93;7.65;;;;;;;17.07;49.63;68670.94;6080105;23;20034;-82
2022/05/02 10:43:35;;;;;;;10.70;7.88;;;;;;;17.05;48.43;68660.59;6078437;23;20014;-83
2022/05/02 10:46:01;;;;;;;12.05;8.05;;;;;;;17.06;50.36;68659.03;6073940;23;20075;-83
2022/05/02 10:48:37;;;;;;;12.50;7.88;;;;;;;17.11;50.41;68670.13;6059995;23;20015;-82
2022/05/02 10:51:33;;;;;;;11.35;7.95;;;;;;;16.98;48.10;68655.31;6064201;23;20019;-82
2022/05/02 10:54:07;;;;;;;11.38;8.10;;;;;;;17.13;49.29;68672.41;6061617;23;20418;-81
2022/05/02 10:56:35;;;;;;;10.52;7.28;;;;;;;17.41;49.66;68703.22;6062038;23;20074;-81
2022/05/02 10:59:01;;;;;;;10.98;7.78;;;;;;;;;;6062761;23;20102;-82
2022/05/02 11:02:01;;;;;;;9.63;8.30;;;;;;;17.51;49.24;68715.19;6065090;23;20019;-82
2022/05/02 11:04:51;;;;;;;9.15;7.72;;;;;;;17.68;48.81;68733.44;6064201;23;20362;-82
2022/05/02 11:07:16;;;;;;;13.20;8.00;;;;;;;;;;6063956;23;20082;-82
2022/05/02 11:09:53;;;;;;;10.87;8.00;;;;;;;17.56;48.91;68720.31;6064204;23;20019;-81
2022/05/02 11:12:27;;;;;;;11.23;8.98;;;;;;;17.82;46.90;68749.44;6061064;23;20078;-82
2022/05/02 11:15:07;;;;;;;12.30;8.95;;;;;;;17.51;46.77;68715.19;6064529;23;20018;-81
2022/05/02 11:17:55;;;;;;;11.90;8.77;;;;;;;17.78;45.29;68744.88;6064829;23;20025;-81
2022/05/02 11:20:42;;;;;;;10.75;9.00;;;;;;;17.65;45.22;68730.59;6063980;23;20022;-81
2022/05/02 11:23:39;;;;;;;10.95;9.13;;;;;;;17.60;44.72;68725.44;6065382;23;20019;-81
2022/05/02 11:26:32;;;;;;;10.25;9.05;;;;;;;17.29;47.49;68687.97;6043882;23;20457;-82
2022/05/02 11:29:26;;;;;;;10.40;8.48;;;;;;;17.32;46.26;68693.50;6042007;23;20018;-81
2022/05/02 11:32:00;;;;;;;10.93;7.88;;;;;;;17.74;47.51;68738.16;6037847;23;20030;-82
2022/05/02 11:34:47;;;;;;;10.30;8.40;;;;;;;17.93;46.21;68759.31;6063413;23;20038;-81
2022/05/02 11:37:21;;;;;;;11.68;9.20;;;;;;;;;;6063585;23;20381;-82
2022/05/02 11:39:52;;;;;;;13.00;8.40;;;;;;;;;;6064408;23;20027;-82
2022/05/02 11:42:21;;;;;;;11.13;8.10;;;;;;;18.02;45.64;68771.69;6060969;23;20019;-82
2022/05/02 11:44:50;;;;;;;11.02;9.15;;;;;;;;;;6063852;23;20358;-82
2022/05/02 11:47:20;;;;;;;13.93;8.88;;;;;;;;;;6061491;23;20019;-82
2022/05/02 11:50:05;;;;;;;11.00;8.75;;;;;;;18.07;47.02;68774.13;6066105;23;20015;-81
2022/05/02 11:52:38;;;;;;;9.98;8.05;;;;;;;;;;6061938;23;20014;-82
2022/05/02 11:55:08;;;;;;;9.50;8.23;;;;;;;17.49;45.90;68709.63;6063458;23;20022;-82
2022/05/02 11:57:40;;;;;;;13.70;9.18;;;;;;;17.57;45.41;68722.03;6062248;23;20408;-81
2022/05/02 12:00:06;;;;;;;10.77;8.32;;;;;;;17.55;46.09;68719.16;6064401;23;20106;-82
2022/05/02 12:02:38;;;;;;;12.02;9.35;;;;;;;17.31;44.66;68692.94;6062924;23;20019;-81
2022/05/02 12:05:09;;;;;;;13.88;8.35;;;;;;;17.19;46.83;68678.69;6064925;23;20019;-82
2022/05/02 12:07:35;;;;;;;10.77;8.15;;;;;;;;;;6063452;23;20019;-82
2022/05/02 12:10:06;;;;;;;11.73;8.88;;;;;;;17.03;46.98;68658.31;6070011;23;20083;-82
2022/05/02 12:12:32;;;;;;;14.38;8.65;;;;;;;17.31;46.98;68692.38;6066258;23;20011;-82
2022/05/02 12:15:10;;;;;;;9.63;8.30;;;;;;;17.27;47.30;68688.38;6066604;23;20015;-82
2022/05/02 12:18:03;;;;;;;10.60;8.15;;;;;;;;;;6064410;23;20019;-82
2022/05/02 12:20:30;;;;;;;11.27;8.07;;;;;;;;;;6059063;23;20030;-81
2022/05/02 12:23:03;;;;;;;11.45;8.35;;;;;;;17.59;47.21;68724.31;6063865;23;20011;-81
2022/05/02 12:25:29;;;;;;;10.70;8.48;;;;;;;17.92;45.66;68760.28;6065847;23;20051;-81
2022/05/02 12:27:56;;;;;;;13.80;8.20;;;;;;;18.13;44.91;68781.00;6064485;23;20037;-82
2022/05/02 12:30:21;;;;;;;9.75;8.13;;;;;;;18.38;45.05;68811.66;6065056;23;20038;-82
2022/05/02 12:32:49;;;;;;;11.25;8.57;;;;;;;18.44;42.86;68813.09;6062319;23;20019;-82
2022/05/02 12:35:19;;;;;;;9.50;8.00;;;;;;;18.24;45.29;68791.44;6066534;23;20025;-82
2022/05/02 12:37:47;;;;;;;10.65;9.55;;;;;;;17.86;44.59;68754.00;6065680;23;20022;-83
2022/05/02 12:40:15;;;;;;;11.75;8.93;;;;;;;17.68;45.05;68734.00;6071333;23;20050;-82
2022/05/02 12:42:51;;;;;;;11.05;8.32;;;;;;;17.47;45.12;68707.38;6081094;23;20015;-82
2022/05/02 12:45:19;;;;;;;11.52;8.98;;;;;;;17.35;46.31;68697.50;6070323;23;20023;-81